createdAt,value
2019-05-12T00:00:07.836Z,101588.27
2019-05-12T00:05:12.351Z,101595.63
2019-05-12T00:10:17.744Z,101595.63
2019-05-12T00:15:22.182Z,101603.28
2019-05-12T00:20:28.391Z,101611.52
2019-05-12T00:25:32.003Z,101614.75
2019-05-12T00:30:38.477Z,101618.70
2019-05-12T00:35:41.779Z,101627.00
2019-05-12T00:40:47.925Z,101627.91
2019-05-12T00:45:51.749Z,101631.23
2019-05-12T00:50:55.763Z,101632.02
2019-05-12T00:56:00.188Z,101634.97
2019-05-12T01:01:04.175Z,101646.55
2019-05-12T01:06:08.510Z,101662.77
2019-05-12T01:11:12.601Z,101660.52
2019-05-12T01:16:18.427Z,101675.64
2019-05-12T01:21:22.532Z,101680.09
2019-05-12T01:26:28.452Z,101673.30
2019-05-12T01:31:32.550Z,101691.05
2019-05-12T01:36:38.118Z,101684.98
2019-05-12T01:41:42.579Z,101698.91
2019-05-12T01:46:48.432Z,101711.08
2019-05-12T01:51:52.623Z,101712.66
2019-05-12T01:56:58.607Z,101720.88
2019-05-12T02:02:02.409Z,101733.16
2019-05-12T02:07:08.341Z,101739.75
2019-05-12T02:12:12.502Z,101746.76
2019-05-12T02:17:17.992Z,101749.70
2019-05-12T02:22:22.308Z,101756.47
2019-05-12T02:27:28.281Z,101763.17
2019-05-12T02:32:43.328Z,101765.55
2019-05-12T02:37:37.888Z,101762.80
2019-05-12T02:42:46.006Z,101767.73
2019-05-12T02:47:47.687Z,101766.40
2019-05-12T02:52:54.459Z,101774.19
2019-05-12T02:57:58.393Z,101781.87
2019-05-12T03:03:05.520Z,101791.23
2019-05-12T03:08:14.981Z,101800.67
2019-05-12T03:13:17.288Z,101818.31
2019-05-12T03:18:21.316Z,101808.10
2019-05-12T03:23:25.378Z,101810.02
2019-05-12T03:28:29.437Z,101814.28
2019-05-12T03:33:41.624Z,101824.23
2019-05-12T03:38:39.222Z,101828.88
2019-05-12T03:43:44.836Z,101844.77
2019-05-12T03:48:49.151Z,101849.50
2019-05-12T03:53:55.580Z,101862.73
2019-05-12T03:58:58.955Z,101871.59
2019-05-12T04:04:05.158Z,101867.57
2019-05-12T04:09:09.392Z,101878.38
2019-05-12T04:14:14.795Z,101890.00
2019-05-12T04:19:21.271Z,101901.73
2019-05-12T04:24:30.148Z,101908.75
2019-05-12T04:29:35.296Z,101921.03
2019-05-12T04:34:39.554Z,101925.30
2019-05-12T04:39:44.744Z,101938.94
2019-05-12T04:44:49.094Z,101951.45
2019-05-12T04:49:54.637Z,101942.76
2019-05-12T04:54:59.045Z,101965.85
2019-05-12T05:00:05.245Z,101971.84
2019-05-12T05:05:09.491Z,101987.58
2019-05-12T05:10:14.536Z,102011.32
2019-05-12T05:15:18.893Z,102011.32
2019-05-12T05:20:23.938Z,102020.45
2019-05-12T05:25:28.169Z,102043.92
2019-05-12T05:30:33.925Z,102050.41
2019-05-12T05:35:39.776Z,102052.95
2019-05-12T05:40:44.533Z,102057.42
2019-05-12T05:45:48.892Z,102064.89
2019-05-12T05:51:13.441Z,102079.66
2019-05-12T05:56:42.315Z,102083.01
2019-05-12T06:01:45.805Z,102099.06
2019-05-12T06:06:50.920Z,102100.25
2019-05-12T06:11:54.166Z,102109.11
2019-05-12T06:16:58.422Z,102120.28
2019-05-12T06:22:03.990Z,102124.01
2019-05-12T06:27:15.151Z,102125.75
2019-05-12T06:32:14.327Z,102144.94
2019-05-12T06:37:18.539Z,102145.16
2019-05-12T06:42:24.180Z,102134.80
2019-05-12T06:47:28.346Z,102150.60
2019-05-12T06:52:33.728Z,102161.55
2019-05-12T06:57:40.145Z,102160.59
2019-05-12T07:02:50.031Z,102167.28
2019-05-12T07:07:49.491Z,102168.98
2019-05-12T07:13:01.475Z,102173.88
2019-05-12T07:17:59.321Z,102173.73
2019-05-12T07:23:04.122Z,102180.81
2019-05-12T07:28:08.487Z,102191.17
2019-05-12T07:33:14.517Z,102196.27
2019-05-12T07:38:21.335Z,102190.89
2019-05-12T07:43:26.570Z,102201.38
2019-05-12T07:48:30.590Z,102217.72
2019-05-12T07:53:34.930Z,102205.23
2019-05-12T07:58:41.002Z,102204.84
2019-05-12T08:03:44.814Z,102212.64
2019-05-12T08:08:50.467Z,102220.03
2019-05-12T08:13:54.567Z,102220.15
2019-05-12T08:18:58.640Z,102223.08
2019-05-12T08:24:03.761Z,102225.20
2019-05-12T08:29:10.415Z,102228.94
2019-05-12T08:34:16.274Z,102233.92
2019-05-12T08:39:23.147Z,102240.69
2019-05-12T08:44:33.469Z,102242.30
2019-05-12T08:49:45.007Z,102239.39
2019-05-12T08:54:39.699Z,102257.55
2019-05-12T08:59:44.159Z,102253.77
2019-05-12T09:04:51.426Z,102266.41
2019-05-12T09:09:54.553Z,102272.78
2019-05-12T09:14:58.663Z,102272.48
2019-05-12T09:20:08.168Z,102268.10
2019-05-12T09:25:09.089Z,102278.19
2019-05-12T09:30:16.985Z,102279.11
2019-05-12T09:35:21.151Z,102280.74
2019-05-12T09:40:25.330Z,102279.44
2019-05-12T09:45:29.490Z,102270.77
2019-05-12T09:50:34.070Z,102289.44
2019-05-12T09:55:39.144Z,102295.74
2019-05-12T10:00:43.803Z,102291.11
2019-05-12T10:05:47.902Z,102296.52
2019-05-12T10:10:53.596Z,102282.89
2019-05-12T10:15:58.750Z,102282.81
2019-05-12T10:21:10.181Z,102278.89
2019-05-12T10:26:14.987Z,102286.80
2019-05-12T10:31:18.987Z,102293.03
2019-05-12T10:36:24.060Z,102295.02
2019-05-12T10:41:28.255Z,102297.95
2019-05-12T10:46:32.351Z,102309.54
2019-05-12T10:51:36.503Z,102310.22
2019-05-12T10:56:43.851Z,102309.98
2019-05-12T11:01:48.979Z,102308.02
2019-05-12T11:06:53.910Z,102310.86
2019-05-12T11:11:58.507Z,102308.69
2019-05-12T11:17:07.715Z,102322.39
2019-05-12T11:22:09.448Z,102338.27
2019-05-12T11:27:13.724Z,102327.86
2019-05-12T11:32:17.951Z,102318.90
2019-05-12T11:37:23.117Z,102349.06
2019-05-12T11:42:27.347Z,102333.93
2019-05-12T11:47:33.899Z,102345.58
2019-05-12T11:52:37.447Z,102338.30
2019-05-12T11:57:43.758Z,102335.19
2019-05-12T12:02:47.927Z,102326.96
2019-05-12T12:07:53.429Z,102335.66
2019-05-12T12:12:58.068Z,102345.34
2019-05-12T12:18:04.008Z,102366.02
2019-05-12T12:23:11.009Z,102359.53
2019-05-12T12:28:13.821Z,102368.08
2019-05-12T12:33:17.863Z,102356.38
2019-05-12T12:38:21.890Z,102365.30
2019-05-12T12:43:25.942Z,102357.96
2019-05-12T12:48:30.093Z,102361.86
2019-05-12T12:53:34.519Z,102366.31
2019-05-12T12:58:38.680Z,102362.23
2019-05-12T13:03:43.519Z,102369.14
2019-05-12T13:08:47.582Z,102388.52
2019-05-12T13:13:53.525Z,102389.48
2019-05-12T13:18:57.677Z,102381.52
2019-05-12T13:24:03.608Z,102405.14
2019-05-12T13:29:07.486Z,102408.95
2019-05-12T13:34:11.507Z,102400.05
2019-05-12T13:39:17.874Z,102407.13
2019-05-12T13:44:23.948Z,102414.69
2019-05-12T13:49:29.953Z,102412.09
2019-05-12T13:54:34.066Z,102412.77
2019-05-12T13:59:38.260Z,102417.78
2019-05-12T14:04:44.335Z,102428.65
2019-05-12T14:09:48.530Z,102444.06
2019-05-12T14:14:52.740Z,102432.84
2019-05-12T14:19:56.758Z,102441.89
2019-05-12T14:25:02.185Z,102443.99
2019-05-12T14:30:09.856Z,102441.42
2019-05-12T14:35:12.574Z,102451.00
2019-05-12T14:40:21.382Z,102461.46
2019-05-12T14:45:25.631Z,102457.66
2019-05-12T14:50:29.292Z,102458.27
2019-05-12T14:55:33.796Z,102460.78
2019-05-12T15:00:38.952Z,102474.11
2019-05-12T15:05:47.038Z,102475.70
2019-05-12T15:10:48.926Z,102479.09
2019-05-12T15:15:58.140Z,102469.84
2019-05-12T15:20:59.298Z,102479.88
2019-05-12T15:26:09.223Z,102486.47
2019-05-12T15:31:10.128Z,102494.56
2019-05-12T15:36:14.540Z,102493.67
2019-05-12T15:41:20.105Z,102497.92
2019-05-12T15:46:24.853Z,102496.89
2019-05-12T15:51:28.868Z,102496.65
2019-05-12T15:56:33.543Z,102513.97
2019-05-12T16:01:37.688Z,102508.92
2019-05-12T16:06:45.132Z,102513.32
2019-05-12T16:11:47.822Z,102520.98
2019-05-12T16:16:53.608Z,102524.52
2019-05-12T16:21:57.780Z,102514.33
2019-05-12T16:27:03.589Z,102522.78
2019-05-12T16:32:07.833Z,102528.75
2019-05-12T16:37:13.923Z,102531.41
2019-05-12T16:42:17.782Z,102537.03
2019-05-12T16:47:25.134Z,102540.25
2019-05-12T16:52:32.399Z,102547.88
2019-05-12T16:57:33.731Z,102560.75
2019-05-12T17:02:41.928Z,102554.75
2019-05-12T17:07:55.853Z,102567.17
2019-05-12T17:12:57.386Z,102570.93
2019-05-12T17:18:04.298Z,102580.66
2019-05-12T17:23:07.667Z,102566.63
2019-05-12T17:28:13.273Z,102578.45
2019-05-12T17:33:22.816Z,102576.83
2019-05-12T17:38:25.195Z,102579.55
2019-05-12T17:43:29.752Z,102581.11
2019-05-12T17:48:37.113Z,102590.91
2019-05-12T17:53:39.650Z,102600.31
2019-05-12T17:58:47.268Z,102601.74
2019-05-12T18:03:50.834Z,102618.44
2019-05-12T18:08:55.654Z,102628.99
2019-05-12T18:14:06.901Z,102624.23
2019-05-12T18:19:15.409Z,102629.94
2019-05-12T18:24:14.451Z,102643.75
2019-05-12T18:29:18.779Z,102647.14
2019-05-12T18:34:25.249Z,102651.57
2019-05-12T18:39:29.480Z,102656.11
2019-05-12T18:44:36.464Z,102662.23
2019-05-12T18:49:47.951Z,102673.22
2019-05-12T18:54:57.257Z,102683.95
2019-05-12T19:00:07.256Z,102693.36
2019-05-12T19:05:21.887Z,102705.02
2019-05-12T19:10:25.842Z,102716.89
2019-05-12T19:15:33.521Z,102716.08
2019-05-12T19:20:40.197Z,102733.85
2019-05-12T19:25:47.340Z,102746.56
2019-05-12T19:30:54.454Z,102749.93
2019-05-12T19:36:04.548Z,102763.53
2019-05-12T19:41:13.971Z,102775.31
2019-05-12T19:46:24.232Z,102778.15
2019-05-12T19:51:37.157Z,102785.85
2019-05-12T19:56:43.380Z,102784.74
2019-05-12T20:01:47.118Z,102794.39
2019-05-12T20:06:51.512Z,102802.00
2019-05-12T20:11:55.575Z,102804.91
2019-05-12T20:16:59.759Z,102817.03
2019-05-12T20:22:03.797Z,102823.03
2019-05-12T20:27:10.553Z,102827.94
2019-05-12T20:32:14.018Z,102836.55
2019-05-12T20:37:18.412Z,102835.52
2019-05-12T20:42:23.668Z,102837.10
2019-05-12T20:47:27.899Z,102841.97
2019-05-12T20:52:34.133Z,102849.88
2019-05-12T20:57:40.177Z,102852.83
2019-05-12T21:02:44.235Z,102852.83
2019-05-12T21:07:48.625Z,102856.56
2019-05-12T21:12:54.351Z,102864.52
2019-05-12T21:18:06.767Z,102868.84
2019-05-12T21:23:04.740Z,102871.57
2019-05-12T21:28:09.231Z,102878.10
2019-05-12T21:33:14.755Z,102886.48
2019-05-12T21:38:25.165Z,102886.98
2019-05-12T21:43:24.793Z,102890.78
2019-05-12T21:48:29.402Z,102896.60
2019-05-12T21:53:34.517Z,102901.52
2019-05-12T21:58:45.513Z,102900.47
2019-05-12T22:03:46.003Z,102897.98
2019-05-12T22:08:55.222Z,102901.97
2019-05-12T22:14:00.252Z,102894.70
2019-05-12T22:19:03.623Z,102903.53
2019-05-12T22:24:07.678Z,102912.83
2019-05-12T22:29:13.548Z,102909.77
2019-05-12T22:34:17.549Z,102913.94
2019-05-12T22:39:21.673Z,102922.19
2019-05-12T22:44:25.773Z,102924.97
2019-05-12T22:49:29.787Z,102926.14
2019-05-12T22:54:33.872Z,102925.45
2019-05-12T22:59:40.253Z,102925.41
2019-05-12T23:04:44.007Z,102931.47
2019-05-12T23:09:48.887Z,102936.66
2019-05-12T23:14:54.129Z,102947.07
2019-05-12T23:19:58.627Z,102953.52
2019-05-12T23:25:03.996Z,102959.84
2019-05-12T23:30:11.245Z,102967.98
2019-05-12T23:35:14.555Z,102973.48
2019-05-12T23:40:18.710Z,102970.78
2019-05-12T23:45:24.350Z,102969.45
2019-05-12T23:50:28.829Z,102978.77
2019-05-12T23:55:35.029Z,102980.41
